Time;durP1;ratioP1;P1;durP2;ratioP2;P2;SDS_P1;SDS_P2;PMS_P1;PMS_P2;Temp;Humidity;BMP_temperature;BMP_pressure;BME280_temperature;BME280_humidity;BME280_pressure;Samples;Min_cycle;Max_cycle;Signal;HPM_P1;HPM_P2
2022/05/21 00:00:48;;;;;;;11.77;4.82;;;;;;;21.40;63.11;96533.56;5090210;28;20047;-78
2022/05/21 00:03:16;;;;;;;14.15;8.52;;;;;;;21.29;64.42;96555.63;5089389;28;20044;-79
2022/05/21 00:05:44;;;;;;;763.30;708.75;;;;;;;21.16;67.11;96507.25;5089834;28;20047;-78
2022/05/21 00:08:10;;;;;;;22.60;7.10;;;;;;;20.35;73.27;96472.84;5089496;28;20484;-77
2022/05/21 00:10:38;;;;;;;16.75;6.78;;;;;;;19.67;77.26;96472.00;5090033;28;20043;-79
2022/05/21 00:13:05;;;;;;;15.55;6.65;;;;;;;19.24;79.78;96521.06;5089498;28;20051;-79
2022/05/21 00:15:34;;;;;;;15.27;6.90;;;;;;;18.86;82.72;96557.88;5090474;28;20046;-79
2022/05/21 00:18:01;;;;;;;10.70;6.95;;;;;;;18.60;85.01;96566.84;5090068;28;20040;-78
2022/05/21 00:23:15;;;;;;;16.10;8.55;;;;;;;18.24;89.37;96538.56;5089468;28;20055;-78
2022/05/21 00:25:44;;;;;;;14.15;8.15;;;;;;;18.26;88.35;96535.44;5089974;28;20058;-78
2022/05/21 00:28:11;;;;;;;12.88;8.00;;;;;;;18.16;88.63;96534.03;5089676;28;20056;-79
2022/05/21 00:30:37;;;;;;;11.43;7.95;;;;;;;18.24;88.44;96540.50;5089889;28;20047;-78
2022/05/21 00:33:05;;;;;;;11.50;7.63;;;;;;;18.23;88.48;96533.41;5089543;28;20498;-79
2022/05/21 00:35:33;;;;;;;572.42;527.90;;;;;;;18.20;88.82;96536.88;5089866;28;20036;-79
2022/05/21 00:38:00;;;;;;;15.52;8.10;;;;;;;18.35;89.01;96533.25;5090093;28;20044;-79
2022/05/21 00:40:27;;;;;;;13.57;7.80;;;;;;;18.45;88.60;96527.16;5089713;28;20043;-79
2022/05/21 00:42:54;;;;;;;11.10;7.78;;;;;;;18.58;87.49;96538.81;5089380;28;20043;-79
2022/05/21 00:45:21;;;;;;;13.68;7.93;;;;;;;18.66;87.57;96542.50;5089427;28;20048;-79
2022/05/21 00:47:47;;;;;;;119.13;110.75;;;;;;;18.75;85.79;96546.66;5089719;28;20052;-79
2022/05/21 00:50:17;;;;;;;713.95;640.55;;;;;;;18.85;85.09;96545.25;5089365;28;20048;-79
2022/05/21 00:52:46;;;;;;;712.42;639.90;;;;;;;18.95;85.08;96550.19;5089956;28;20093;-78
2022/05/21 00:55:16;;;;;;;13.15;7.10;;;;;;;18.98;83.91;96549.41;5089168;28;20543;-79
2022/05/21 00:57:46;;;;;;;12.35;7.45;;;;;;;19.05;83.95;96554.25;5089759;28;20127;-78
2022/05/21 01:00:15;;;;;;;13.82;7.03;;;;;;;19.04;83.69;96560.94;5087868;28;20052;-79
2022/05/21 01:02:48;;;;;;;15.05;6.93;;;;;;;19.03;83.61;96568.44;5090898;28;20047;-79
2022/05/21 01:05:17;;;;;;;15.32;7.50;;;;;;;19.01;83.27;96565.25;5093258;28;20043;-79
2022/05/21 01:07:47;;;;;;;26.35;16.02;;;;;;;19.01;83.72;96569.97;5093236;28;20044;-78
2022/05/21 01:10:16;;;;;;;18.33;7.85;;;;;;;18.94;83.74;96575.34;5092617;28;20047;-78
2022/05/21 01:12:45;;;;;;;24.42;8.27;;;;;;;18.95;83.86;96575.00;5092471;28;20047;-78
2022/05/21 01:15:16;;;;;;;112.30;104.40;;;;;;;18.93;83.47;96560.75;5092876;28;20044;-78
2022/05/21 01:17:43;;;;;;;40.80;26.92;;;;;;;18.96;83.94;96562.81;5093314;28;20039;-79
2022/05/21 01:20:15;;;;;;;59.63;54.17;;;;;;;18.99;84.15;96556.53;5092740;28;20047;-79
2022/05/21 01:22:45;;;;;;;23.67;14.50;;;;;;;18.97;83.74;96569.91;5093176;28;20040;-78
2022/05/21 01:25:14;;;;;;;471.13;441.30;;;;;;;18.87;84.07;96564.19;5092134;28;20044;-78
2022/05/21 01:27:41;;;;;;;21.80;8.43;;;;;;;18.85;84.96;96555.50;5092822;28;20044;-78
2022/05/21 01:30:11;;;;;;;25.17;8.80;;;;;;;18.73;85.57;96548.19;5092494;28;20051;-79
2022/05/21 01:32:38;;;;;;;96.93;90.45;;;;;;;18.56;85.77;96554.13;5093266;28;20693;-79
2022/05/21 01:35:06;;;;;;;326.95;306.90;;;;;;;18.52;84.65;96557.59;5092242;28;20044;-79
2022/05/21 01:37:33;;;;;;;794.42;732.28;;;;;;;18.41;85.15;96561.31;5092457;28;20052;-79
2022/05/21 01:40:01;;;;;;;789.13;713.72;;;;;;;18.28;84.64;96566.19;5092409;28;20044;-78
2022/05/21 01:42:28;;;;;;;795.38;718.03;;;;;;;18.38;84.16;96568.38;5091643;28;20115;-79
2022/05/21 01:44:53;;;;;;;764.38;689.38;;;;;;;18.38;84.07;96570.34;5092430;28;20075;-79
2022/05/21 01:47:22;;;;;;;608.97;560.90;;;;;;;18.33;83.93;96579.69;5091866;28;20526;-78
2022/05/21 01:49:49;;;;;;;809.70;741.50;;;;;;;18.29;83.79;96592.59;5092298;28;20048;-79
2022/05/21 01:52:15;;;;;;;754.83;679.72;;;;;;;18.29;83.42;96611.91;5092007;28;20051;-78
2022/05/21 01:54:42;;;;;;;736.92;663.83;;;;;;;18.23;83.40;96602.31;5092410;28;20055;-79
2022/05/21 01:57:11;;;;;;;728.13;655.58;;;;;;;18.24;83.34;96603.91;5091998;28;20059;-79
2022/05/21 01:59:39;;;;;;;770.92;697.40;;;;;;;18.27;83.36;96603.19;5093013;28;20066;-79
2022/05/21 02:02:06;;;;;;;345.52;308.20;;;;;;;18.29;83.96;96597.31;5093241;28;20044;-79
2022/05/21 02:04:34;;;;;;;10.48;7.50;;;;;;;18.30;83.74;96602.47;5093625;28;20040;-80
2022/05/21 02:07:00;;;;;;;710.05;641.10;;;;;;;18.25;82.28;96600.00;5093359;28;20698;-79
2022/05/21 02:09:27;;;;;;;237.88;212.65;;;;;;;18.15;82.02;96611.59;5093527;28;20073;-79
2022/05/21 02:11:53;;;;;;;13.48;6.18;;;;;;;18.12;82.41;96612.31;5092031;28;20435;-79
2022/05/21 02:14:21;;;;;;;34.05;26.63;;;;;;;18.07;82.69;96610.66;5093162;28;20435;-79
2022/05/21 02:16:48;;;;;;;746.80;673.28;;;;;;;17.91;83.16;96607.13;5093979;28;20041;-79
2022/05/21 02:19:15;;;;;;;374.67;336.00;;;;;;;17.89;83.34;96595.66;5091998;28;20055;-79
2022/05/21 02:21:41;;;;;;;12.43;6.38;;;;;;;17.90;83.46;96606.31;5093103;28;20032;-79
2022/05/21 02:24:09;;;;;;;149.15;135.40;;;;;;;17.93;83.00;96608.38;5092234;28;20044;-78
2022/05/21 02:26:36;;;;;;;45.30;19.52;;;;;;;17.90;83.88;96611.81;5093145;28;20060;-79
2022/05/21 02:29:04;;;;;;;451.92;410.65;;;;;;;17.91;84.25;96613.44;5091812;28;20044;-79
2022/05/21 02:31:32;;;;;;;718.22;646.72;;;;;;;17.85;83.90;96606.59;5092687;28;20071;-79
2022/05/21 02:33:59;;;;;;;68.78;42.80;;;;;;;17.87;84.08;96612.56;5092788;28;20055;-79
2022/05/21 02:41:50;;;;;;;12.60;6.55;;;;;;;17.90;83.37;96628.34;5091506;28;20050;-79
2022/05/21 02:44:17;;;;;;;775.33;699.63;;;;;;;17.93;83.15;96624.88;5091810;28;20541;-79
2022/05/21 02:46:44;;;;;;;752.28;678.70;;;;;;;17.87;83.03;96618.06;5091966;28;20056;-79
2022/05/21 02:49:11;;;;;;;749.58;676.83;;;;;;;17.94;83.48;96612.72;5091291;28;20048;-80
2022/05/21 02:51:40;;;;;;;750.92;678.40;;;;;;;17.95;82.39;96622.56;5091910;28;20044;-79
2022/05/21 02:54:06;;;;;;;747.17;673.33;;;;;;;17.94;81.99;96623.72;5091400;28;20089;-78
2022/05/21 02:56:35;;;;;;;719.00;647.03;;;;;;;17.92;82.26;96628.81;5091342;28;20548;-79
2022/05/21 02:59:06;;;;;;;747.90;675.35;;;;;;;17.95;82.06;96636.34;5091000;28;20048;-79
2022/05/21 03:01:33;;;;;;;704.25;632.67;;;;;;;17.75;81.68;96629.22;5091698;28;20058;-79
2022/05/21 03:04:01;;;;;;;711.30;639.22;;;;;;;17.84;82.19;96629.78;5091528;28;20059;-80
2022/05/21 03:06:27;;;;;;;732.17;659.65;;;;;;;17.84;82.20;96624.28;5091356;28;20044;-79
2022/05/21 03:11:38;;;;;;;589.03;483.83;;;;;;;17.79;81.72;96641.09;5090403;28;20043;-79
2022/05/21 03:14:04;;;;;;;17.17;6.80;;;;;;;17.89;81.16;96637.78;5090923;28;20044;-80
2022/05/21 03:16:31;;;;;;;50.13;32.38;;;;;;;17.90;82.01;96633.88;5091320;28;20483;-79
2022/05/21 03:18:58;;;;;;;8.77;4.97;;;;;;;17.82;80.97;96631.31;5091357;28;20050;-79
2022/05/21 03:21:26;;;;;;;765.92;692.53;;;;;;;17.84;81.50;96627.03;5090813;28;20097;-79
2022/05/21 03:23:52;;;;;;;782.88;708.67;;;;;;;17.87;81.54;96631.84;5090554;28;20074;-78
2022/05/21 03:26:19;;;;;;;786.75;712.83;;;;;;;17.89;80.82;96635.03;5089987;28;20059;-80
2022/05/21 03:28:45;;;;;;;743.92;671.08;;;;;;;17.91;80.43;96627.22;5090876;28;20487;-79
2022/05/21 03:31:12;;;;;;;653.90;584.75;;;;;;;17.94;79.89;96634.75;5090136;28;20486;-79
2022/05/21 03:33:39;;;;;;;13.40;6.63;;;;;;;17.94;79.77;96642.22;5091156;28;20048;-80
2022/05/21 03:36:08;;;;;;;754.90;681.58;;;;;;;17.95;79.52;96638.31;5090213;28;20040;-79
2022/05/21 03:38:36;;;;;;;856.45;779.92;;;;;;;17.84;79.47;96640.81;5090582;28;20044;-80
2022/05/21 03:41:03;;;;;;;770.05;696.83;;;;;;;17.73;79.93;96645.28;5089420;28;20069;-79
2022/05/21 03:43:29;;;;;;;772.97;699.63;;;;;;;17.64;80.23;96653.69;5090376;28;20040;-78
2022/05/21 03:45:56;;;;;;;745.58;672.80;;;;;;;17.70;80.83;96665.25;5090476;28;20066;-78
2022/05/21 03:48:22;;;;;;;824.67;750.00;;;;;;;17.72;80.50;96661.00;5089979;28;20051;-79
2022/05/21 03:50:49;;;;;;;748.58;676.65;;;;;;;17.77;80.64;96653.63;5090460;28;20051;-79
2022/05/21 03:53:16;;;;;;;798.85;724.38;;;;;;;17.80;80.15;96655.66;5089649;28;20433;-81
2022/05/21 03:55:45;;;;;;;484.40;377.08;;;;;;;17.81;80.13;96671.84;5090462;28;20707;-79
2022/05/21 03:58:12;;;;;;;417.50;365.35;;;;;;;17.84;80.25;96673.88;5090032;28;20071;-79
2022/05/21 04:00:39;;;;;;;706.75;636.00;;;;;;;17.88;80.59;96671.22;5090268;28;20483;-78
2022/05/21 04:03:06;;;;;;;760.33;687.42;;;;;;;17.87;80.68;96667.66;5089801;28;20048;-79
2022/05/21 04:05:32;;;;;;;412.92;298.85;;;;;;;17.88;80.67;96672.00;5090536;28;20048;-79
2022/05/21 04:07:59;;;;;;;539.63;293.67;;;;;;;17.90;80.09;96671.63;5090099;28;20517;-79
2022/05/21 04:10:26;;;;;;;520.95;242.88;;;;;;;17.85;80.51;96675.47;5089396;28;20036;-79
2022/05/21 04:12:54;;;;;;;715.05;642.58;;;;;;;17.76;80.26;96682.34;5086078;28;20047;-79
2022/05/21 04:15:20;;;;;;;575.58;421.58;;;;;;;17.64;80.30;96681.22;5088805;28;20040;-79
2022/05/21 04:17:47;;;;;;;621.60;560.80;;;;;;;17.66;80.87;96686.38;5090170;28;20048;-79
2022/05/21 04:20:16;;;;;;;767.83;694.33;;;;;;;17.71;80.49;96680.63;5089627;28;20036;-80
2022/05/21 04:22:43;;;;;;;551.65;344.15;;;;;;;17.72;80.05;96687.72;5089403;28;20124;-78
2022/05/21 04:25:10;;;;;;;548.78;342.33;;;;;;;17.74;80.12;96693.69;5089411;28;20059;-79
2022/05/21 04:27:40;;;;;;;626.08;557.83;;;;;;;17.78;79.94;96691.81;5089928;28;20048;-79
2022/05/21 04:30:11;;;;;;;602.40;500.02;;;;;;;17.82;79.48;96687.22;5089499;28;20093;-79
2022/05/21 04:32:38;;;;;;;523.28;259.33;;;;;;;17.72;79.40;96694.06;5090065;28;20044;-79
2022/05/21 04:35:05;;;;;;;467.60;408.73;;;;;;;17.74;79.59;96707.47;5089341;28;20089;-78
2022/05/21 04:37:32;;;;;;;746.00;673.90;;;;;;;17.68;79.22;96711.59;5091571;28;20123;-79
2022/05/21 04:39:58;;;;;;;772.17;698.80;;;;;;;17.74;79.22;96724.78;5094094;28;20044;-78
2022/05/21 04:42:25;;;;;;;531.05;279.80;;;;;;;17.76;78.41;96723.66;5092232;28;20032;-79
2022/05/21 04:44:51;;;;;;;497.60;186.48;;;;;;;17.79;77.26;96734.75;5093799;28;20055;-80
2022/05/21 04:47:19;;;;;;;494.95;190.70;;;;;;;17.68;77.38;96731.69;5093096;28;20044;-79
2022/05/21 04:49:45;;;;;;;370.45;133.60;;;;;;;17.68;76.34;96744.66;5093633;28;20048;-79
2022/05/21 04:52:12;;;;;;;476.60;157.95;;;;;;;17.57;75.85;96749.09;5093055;28;20052;-79
2022/05/21 04:54:38;;;;;;;374.40;168.73;;;;;;;17.62;75.98;96743.31;5093521;28;20055;-80
2022/05/21 04:57:06;;;;;;;332.45;96.10;;;;;;;17.54;76.09;96747.03;5093106;28;20056;-79
2022/05/21 04:59:32;;;;;;;316.13;81.95;;;;;;;17.58;76.37;96750.69;5092788;28;20036;-79
2022/05/21 05:01:59;;;;;;;479.48;176.82;;;;;;;17.60;76.00;96748.41;5093456;28;20418;-81
2022/05/21 05:04:27;;;;;;;22.60;13.82;;;;;;;17.59;75.46;96749.53;5092784;28;20051;-80
2022/05/21 05:06:53;;;;;;;23.48;11.23;;;;;;;17.45;75.07;96759.03;5093204;28;20055;-79
2022/05/21 05:09:22;;;;;;;19.05;10.18;;;;;;;17.47;74.17;96756.72;5092635;28;20063;-79
2022/05/21 05:11:49;;;;;;;27.70;14.48;;;;;;;17.43;74.45;96764.06;5092002;28;20135;-79
2022/05/21 05:14:16;;;;;;;33.55;19.30;;;;;;;17.35;74.98;96765.03;5092337;28;20048;-78
2022/05/21 05:16:42;;;;;;;18.63;10.70;;;;;;;17.30;74.69;96759.00;5093095;28;20486;-79
2022/05/21 05:19:09;;;;;;;25.23;10.77;;;;;;;17.19;74.28;96761.47;5092386;28;20418;-79
2022/05/21 05:21:37;;;;;;;12.88;5.88;;;;;;;17.22;73.71;96763.50;5093071;28;20048;-79
2022/05/21 05:24:04;;;;;;;17.75;10.30;;;;;;;17.20;75.43;96765.81;5091866;28;20040;-80
2022/05/21 05:26:31;;;;;;;13.38;5.88;;;;;;;17.16;75.21;96773.16;5092341;28;20040;-80
2022/05/21 05:28:58;;;;;;;14.85;6.88;;;;;;;17.22;74.45;96769.78;5092716;28;20070;-79
2022/05/21 05:31:24;;;;;;;18.45;10.05;;;;;;;17.12;75.00;96775.81;5092039;28;20499;-79
2022/05/21 05:33:51;;;;;;;20.20;10.35;;;;;;;17.00;75.91;96775.06;5092684;28;20048;-80
2022/05/21 05:36:17;;;;;;;19.10;9.25;;;;;;;16.98;75.66;96777.34;5092433;28;20048;-79
2022/05/21 05:38:45;;;;;;;15.98;7.90;;;;;;;17.08;75.34;96772.16;5092642;28;20151;-79
2022/05/21 05:41:11;;;;;;;23.52;9.98;;;;;;;17.08;74.05;96782.38;5090975;28;20554;-79
2022/05/21 05:43:38;;;;;;;20.50;8.40;;;;;;;16.97;76.06;96779.31;5092497;28;20044;-78
2022/05/21 05:46:04;;;;;;;21.33;10.70;;;;;;;16.93;75.65;96790.22;5091739;28;20051;-79
2022/05/21 05:48:31;;;;;;;18.67;8.15;;;;;;;16.84;76.45;96781.28;5092328;28;20051;-79
2022/05/21 05:51:02;;;;;;;18.63;8.07;;;;;;;16.97;75.67;96787.56;5091949;28;20055;-79
2022/05/21 05:53:28;;;;;;;22.40;11.52;;;;;;;17.00;76.17;96788.81;5092413;28;20040;-79
2022/05/21 05:55:56;;;;;;;26.25;14.23;;;;;;;17.01;76.74;96779.41;5092246;28;20049;-80
2022/05/21 06:01:07;;;;;;;496.15;207.73;;;;;;;16.93;76.33;96787.47;5091834;28;20142;-79
2022/05/21 06:03:34;;;;;;;437.90;114.03;;;;;;;17.13;75.54;96785.69;5091929;28;20044;-79
2022/05/21 06:06:01;;;;;;;435.35;111.47;;;;;;;17.29;71.65;96791.22;5091988;28;20131;-79
2022/05/21 06:08:28;;;;;;;318.65;85.88;;;;;;;17.28;70.88;96788.81;5091481;28;20402;-79
2022/05/21 06:10:55;;;;;;;20.88;12.90;;;;;;;17.40;71.27;96791.53;5090929;28;20044;-78
2022/05/21 06:13:22;;;;;;;22.80;13.68;;;;;;;17.49;71.54;96794.94;5091690;28;20048;-79
2022/05/21 06:15:48;;;;;;;16.15;8.15;;;;;;;17.60;69.98;96795.22;5091842;28;20590;-79
2022/05/21 06:18:19;;;;;;;24.25;12.32;;;;;;;17.78;70.22;96791.00;5091389;28;20063;-79
2022/05/21 06:20:46;;;;;;;33.40;17.67;;;;;;;17.70;70.59;96800.19;5091885;28;20085;-80
2022/05/21 06:23:13;;;;;;;25.70;22.35;;;;;;;17.78;69.59;96801.22;5091491;28;20051;-79
2022/05/21 06:25:40;;;;;;;24.30;13.85;;;;;;;17.82;69.99;96807.63;5092332;28;20431;-79
2022/05/21 06:28:08;;;;;;;29.25;18.27;;;;;;;17.81;68.53;96808.78;5091972;28;20051;-79
2022/05/21 06:30:37;;;;;;;25.83;12.80;;;;;;;17.87;68.92;96805.41;5092538;28;20051;-79
2022/05/21 06:33:12;;;;;;;21.80;13.18;;;;;;;17.81;68.32;96812.34;5091852;28;20055;-78
2022/05/21 06:35:39;;;;;;;20.60;10.60;;;;;;;17.80;67.58;96810.72;5092587;28;20040;-78
2022/05/21 06:38:05;;;;;;;25.58;12.05;;;;;;;17.82;67.05;96813.94;5091997;28;20047;-79
2022/05/21 06:40:32;;;;;;;23.67;10.48;;;;;;;17.85;67.46;96807.69;5091441;28;20055;-79
2022/05/21 06:43:00;;;;;;;18.80;9.45;;;;;;;17.75;67.40;96813.75;5091712;28;20060;-79
2022/05/21 06:45:28;;;;;;;17.38;9.88;;;;;;;17.68;66.98;96824.53;5091225;28;20123;-79
2022/05/21 06:47:55;;;;;;;21.25;10.60;;;;;;;17.75;66.91;96819.25;5091241;28;20078;-79
2022/05/21 06:50:22;;;;;;;20.02;10.55;;;;;;;17.69;64.59;96820.63;5090788;28;20063;-78
2022/05/21 06:52:49;;;;;;;13.45;7.88;;;;;;;17.67;65.62;96822.94;5091090;28;20052;-79
2022/05/21 06:55:15;;;;;;;18.95;9.07;;;;;;;17.81;65.52;96828.84;5090591;28;20044;-79
2022/05/21 06:57:42;;;;;;;21.83;12.48;;;;;;;17.84;64.12;96822.63;5091160;28;20055;-79
2022/05/21 07:00:09;;;;;;;16.55;10.13;;;;;;;17.80;64.96;96827.25;5090062;28;20051;-79
2022/05/21 07:02:37;;;;;;;16.88;8.95;;;;;;;17.59;65.54;96832.13;5091008;28;20040;-79
2022/05/21 07:07:47;;;;;;;13.52;7.72;;;;;;;17.83;66.65;96826.53;5091217;28;20055;-80
2022/05/21 07:10:20;;;;;;;13.38;8.10;;;;;;;18.09;65.50;96833.50;5090286;28;20071;-78
2022/05/21 07:12:47;;;;;;;13.20;8.30;;;;;;;18.23;64.26;96834.66;5090092;28;20051;-79
2022/05/21 07:15:15;;;;;;;13.55;8.90;;;;;;;18.05;62.81;96832.59;5089966;28;20048;-79
2022/05/21 07:17:44;;;;;;;52.08;18.00;;;;;;;17.93;61.81;96841.75;5090628;28;20056;-79
2022/05/21 07:20:15;;;;;;;13.52;7.07;;;;;;;18.00;63.13;96831.69;5090219;28;20131;-78
2022/05/21 07:22:43;;;;;;;10.45;6.82;;;;;;;17.93;63.09;96831.53;5090575;28;20040;-80
2022/05/21 07:25:11;;;;;;;15.13;9.48;;;;;;;18.04;63.49;96825.50;5100371;28;20103;-81
2022/05/21 07:27:38;;;;;;;118.20;32.40;;;;;;;18.11;63.18;96831.19;5094298;28;20042;-81
2022/05/21 07:30:05;;;;;;;30.48;17.00;;;;;;;18.16;65.33;96836.44;5093417;28;20051;-81
2022/05/21 07:32:32;;;;;;;12.25;7.50;;;;;;;18.34;60.07;96829.41;5092782;28;20044;-81
2022/05/21 07:35:01;;;;;;;148.80;50.53;;;;;;;18.46;59.66;96828.50;5092139;28;20039;-80
2022/05/21 07:37:28;;;;;;;22.10;9.23;;;;;;;18.37;59.50;96823.16;5092860;28;20040;-80
2022/05/21 07:39:55;;;;;;;8.82;4.78;;;;;;;18.45;59.50;96824.94;5093630;28;20074;-82
2022/05/21 07:42:22;;;;;;;10.57;5.88;;;;;;;18.46;60.85;96823.00;5091547;28;20048;-79
2022/05/21 07:44:48;;;;;;;12.27;7.65;;;;;;;18.58;57.73;96824.84;5092343;28;20051;-81
2022/05/21 07:47:15;;;;;;;11.90;9.02;;;;;;;18.62;56.46;96823.75;5091796;28;20514;-80
2022/05/21 07:49:42;;;;;;;15.88;8.45;;;;;;;18.77;57.88;96827.69;5092422;28;20055;-80
2022/05/21 07:52:10;;;;;;;17.35;8.27;;;;;;;18.84;59.56;96814.03;5092553;28;20048;-80
2022/05/21 07:54:36;;;;;;;19.50;9.20;;;;;;;18.91;60.23;96808.69;5093810;28;20040;-80
2022/05/21 07:57:03;;;;;;;16.10;8.50;;;;;;;18.87;56.89;96818.84;5092717;28;20544;-80
2022/05/21 07:59:30;;;;;;;13.38;8.55;;;;;;;19.02;57.94;96814.44;5092369;28;20495;-80
2022/05/21 08:01:57;;;;;;;15.45;8.82;;;;;;;19.32;56.56;96814.69;5093049;28;20043;-80
2022/05/21 08:04:24;;;;;;;21.25;14.15;;;;;;;19.69;54.78;96814.25;5091512;28;20112;-80
2022/05/21 08:06:50;;;;;;;11.35;7.82;;;;;;;19.87;53.92;96814.56;5092764;28;20052;-80
2022/05/21 08:09:19;;;;;;;17.00;9.05;;;;;;;19.83;55.04;96814.50;5090899;28;20048;-79
2022/05/21 08:11:46;;;;;;;14.27;9.35;;;;;;;20.18;56.00;96816.28;5091699;28;20136;-80
2022/05/21 08:14:12;;;;;;;25.52;12.60;;;;;;;20.28;56.50;96812.91;5095492;28;20066;-80
2022/05/21 08:16:39;;;;;;;19.10;9.45;;;;;;;20.66;53.43;96819.47;5085872;28;20032;-82
2022/05/21 08:19:05;;;;;;;15.32;8.55;;;;;;;20.83;49.95;96810.63;5096340;28;20402;-81
2022/05/21 08:21:32;;;;;;;18.73;10.77;;;;;;;20.83;50.84;96805.91;5097890;28;20131;-81
2022/05/21 08:27:00;;;;;;;11.80;8.15;;;;;;;21.17;49.94;96813.47;5107476;28;20074;-82
2022/05/21 08:29:28;;;;;;;13.30;7.07;;;;;;;21.17;50.16;96803.19;5108439;28;20036;-83
2022/05/21 08:31:55;;;;;;;16.45;9.13;;;;;;;21.20;50.38;96804.41;5103411;28;20048;-82
2022/05/21 08:34:22;;;;;;;19.70;14.55;;;;;;;21.29;49.61;96807.66;5100845;28;20054;-82
2022/05/21 08:36:49;;;;;;;14.32;8.23;;;;;;;21.41;52.74;96799.16;5100319;28;20052;-81
2022/05/21 08:39:16;;;;;;;3.70;2.10;;;;;;;21.54;47.89;96800.47;5099167;28;20044;-80
2022/05/21 08:41:58;;;;;;;5.10;2.50;;;;;;;21.67;49.85;96803.00;5099185;28;20123;-81
2022/05/21 08:44:36;;;;;;;5.85;2.28;;;;;;;21.79;50.42;96794.41;5098329;28;20055;-80
2022/05/21 08:47:17;;;;;;;4.70;2.22;;;;;;;22.00;49.09;96804.94;5098744;28;20044;-81
2022/05/21 08:49:51;;;;;;;4.75;1.85;;;;;;;22.05;47.37;96805.38;5099829;28;20047;-82
2022/05/21 08:52:22;;;;;;;3.03;1.73;;;;;;;22.12;45.41;96801.88;5100755;28;20044;-81
2022/05/21 08:54:51;;;;;;;4.07;1.95;;;;;;;22.26;50.63;96796.47;5096162;28;20500;-81
2022/05/21 08:57:24;;;;;;;3.05;2.22;;;;;;;22.48;48.11;96797.44;5064955;28;20045;-80
2022/05/21 08:59:59;;;;;;;2.88;1.95;;;;;;;22.69;47.67;96796.00;5077312;28;20051;-81
2022/05/21 09:02:32;;;;;;;2.90;1.77;;;;;;;22.37;45.61;96799.34;5076271;28;20036;-81
2022/05/21 09:05:00;;;;;;;2.70;1.70;;;;;;;22.39;45.24;96796.97;5077062;28;20049;-79
2022/05/21 09:07:31;;;;;;;3.97;1.60;;;;;;;21.99;44.14;96798.59;5076750;28;20051;-81
2022/05/21 09:10:17;;;;;;;4.10;1.77;;;;;;;22.10;46.15;96790.38;5076818;28;20044;-81
2022/05/21 09:12:50;;;;;;;3.33;1.70;;;;;;;22.35;47.24;96793.38;5095398;28;20039;-83
2022/05/21 09:18:08;;;;;;;3.13;1.63;;;;;;;22.21;43.71;96790.50;5097570;28;20339;-80
2022/05/21 09:20:45;;;;;;;2.05;1.45;;;;;;;22.32;44.97;96786.63;5096741;28;20562;-82
2022/05/21 09:23:12;;;;;;;4.63;1.65;;;;;;;22.42;45.05;96779.56;5097093;28;20055;-81
2022/05/21 09:25:38;;;;;;;2.95;1.90;;;;;;;22.53;46.31;96783.19;5100531;28;20074;-80
2022/05/21 09:28:08;;;;;;;3.38;1.65;;;;;;;22.23;44.20;96779.78;5090368;28;20040;-80
2022/05/21 09:30:36;;;;;;;6.63;2.08;;;;;;;22.13;47.93;96779.34;5095704;28;20044;-80
2022/05/21 09:33:23;;;;;;;3.75;1.77;;;;;;;21.98;48.12;96780.34;5095846;28;20044;-80
2022/05/21 09:35:53;;;;;;;4.38;1.92;;;;;;;22.22;44.75;96776.22;5097609;28;20066;-81
2022/05/21 09:38:23;;;;;;;4.32;1.75;;;;;;;22.32;47.03;96777.50;5096154;28;20067;-81
2022/05/21 09:41:06;;;;;;;2.10;1.50;;;;;;;22.20;44.53;96780.56;5103303;28;20052;-82
2022/05/21 09:46:24;;;;;;;3.08;1.83;;;;;;;22.45;44.83;96767.69;5104269;28;20436;-82
2022/05/21 09:48:54;;;;;;;3.20;1.75;;;;;;;22.40;46.75;96773.59;5101086;28;20051;-81
2022/05/21 09:51:29;;;;;;;5.10;1.92;;;;;;;22.32;45.32;96772.75;5102148;28;20587;-82
2022/05/21 09:53:56;;;;;;;3.85;1.88;;;;;;;22.04;43.75;96778.81;5102166;28;20064;-83
2022/05/21 09:56:25;;;;;;;2.80;1.92;;;;;;;22.05;49.15;96769.31;5101093;28;20047;-82
2022/05/21 09:59:10;;;;;;;3.67;1.67;;;;;;;22.25;45.52;96774.69;5101914;28;20040;-82
2022/05/21 10:01:40;;;;;;;3.35;1.50;;;;;;;22.21;43.09;96765.53;5102310;28;20115;-83
2022/05/21 10:04:23;;;;;;;5.00;1.30;;;;;;;22.49;45.95;96760.16;5097694;28;20507;-81
2022/05/21 10:06:54;;;;;;;2.90;1.30;;;;;;;22.69;44.19;96773.78;5099510;28;20044;-82
2022/05/21 10:12:16;;;;;;;1.77;1.20;;;;;;;22.81;46.67;96770.69;5099926;28;20047;-82
2022/05/21 10:14:51;;;;;;;3.40;1.20;;;;;;;22.77;40.53;96778.22;5101578;28;20048;-82
2022/05/21 10:17:27;;;;;;;3.30;1.63;;;;;;;22.86;41.43;96768.34;5077836;28;20051;-80
2022/05/21 10:19:58;;;;;;;1.92;0.98;;;;;;;22.63;42.28;96788.03;5093947;28;20052;-80
2022/05/21 10:22:38;;;;;;;2.42;1.20;;;;;;;22.79;40.63;96776.63;5093422;28;20043;-81
2022/05/21 10:25:09;;;;;;;4.10;1.00;;;;;;;22.90;43.03;96773.94;5091861;28;20105;-81
2022/05/21 10:28:04;;;;;;;1.50;1.05;;;;;;;23.04;40.41;96773.22;5093209;28;20509;-82
2022/05/21 10:30:45;;;;;;;5.95;1.23;;;;;;;23.03;39.81;96761.34;5095026;28;20036;-82
2022/05/21 10:33:23;;;;;;;1.65;0.95;;;;;;;23.05;38.03;96770.06;5093790;28;20044;-82
2022/05/21 10:36:12;;;;;;;1.13;0.80;;;;;;;23.07;38.66;96762.13;5094805;28;20048;-80
2022/05/21 10:39:13;;;;;;;2.03;1.00;;;;;;;23.12;38.64;96758.19;5096208;28;20047;-82
2022/05/21 10:41:59;;;;;;;1.70;0.98;;;;;;;23.20;39.64;96762.59;5077105;28;20044;-81
2022/05/21 10:44:39;;;;;;;3.17;0.93;;;;;;;23.20;40.19;96759.03;5096526;28;20044;-81
2022/05/21 10:47:23;;;;;;;1.00;0.80;;;;;;;23.30;42.33;96753.50;5096823;28;20402;-81
2022/05/21 10:50:10;;;;;;;1.88;1.00;;;;;;;23.46;39.82;96749.59;5093922;28;20047;-80
2022/05/21 10:52:53;;;;;;;2.47;1.08;;;;;;;23.59;41.00;96751.59;5094714;28;20608;-82
2022/05/21 10:55:23;;;;;;;3.53;1.10;;;;;;;23.42;35.34;96755.13;5095440;28;20055;-81
2022/05/21 10:58:09;;;;;;;4.65;0.98;;;;;;;23.42;37.10;96755.91;5095027;28;20044;-82
2022/05/21 11:00:44;;;;;;;1.60;1.00;;;;;;;23.16;37.12;96743.13;5095835;28;20505;-81
2022/05/21 11:03:45;;;;;;;2.33;0.90;;;;;;;23.23;37.94;96747.94;5076375;28;20036;-80
2022/05/21 11:06:33;;;;;;;1.60;0.80;;;;;;;23.20;41.15;96750.69;5092888;28;20048;-80
2022/05/21 11:09:12;;;;;;;0.95;0.65;;;;;;;23.21;37.44;96741.16;5093448;28;20040;-81
2022/05/21 11:11:57;;;;;;;1.73;1.00;;;;;;;23.22;40.51;96740.75;5094106;28;20032;-80
2022/05/21 11:14:28;;;;;;;2.08;0.95;;;;;;;23.34;41.45;96737.66;5092179;28;20044;-80
2022/05/21 11:17:14;;;;;;;4.75;0.90;;;;;;;23.39;39.25;96739.25;5092812;28;20055;-81
2022/05/21 11:19:49;;;;;;;4.22;1.25;;;;;;;23.20;42.44;96736.78;5094561;28;20032;-81
2022/05/21 11:22:19;;;;;;;2.10;1.10;;;;;;;23.45;38.43;96743.22;5091501;28;20044;-80
2022/05/21 11:24:54;;;;;;;2.40;1.10;;;;;;;23.61;38.63;96724.22;5091880;28;20083;-80
2022/05/21 11:27:27;;;;;;;1.73;0.82;;;;;;;23.46;37.55;96711.47;5092294;28;20048;-81
2022/05/21 11:29:59;;;;;;;4.10;1.10;;;;;;;23.35;38.94;96722.56;5095209;28;20052;-81
2022/05/21 11:38:14;;;;;;;2.22;1.00;;;;;;;23.15;40.28;96724.88;5092200;28;20059;-80
2022/05/21 11:46:57;;;;;;;3.85;1.10;;;;;;;23.10;39.85;96716.13;5092710;28;20097;-82
2022/05/21 11:49:39;;;;;;;5.20;1.00;;;;;;;23.09;37.98;96718.09;5092333;28;20044;-80
2022/05/21 11:52:51;;;;;;;1.25;0.93;;;;;;;23.28;38.79;96710.63;5092558;28;20055;-81
2022/05/21 11:55:21;;;;;;;2.00;0.90;;;;;;;23.24;37.86;96709.81;5094128;28;20051;-81
2022/05/21 11:57:51;;;;;;;3.17;0.90;;;;;;;23.09;37.88;96715.31;5093605;28;20052;-81
2022/05/21 12:00:43;;;;;;;2.17;0.85;;;;;;;22.97;36.85;96710.13;5091885;28;20051;-79
2022/05/21 12:03:19;;;;;;;1.20;0.70;;;;;;;22.82;39.68;96711.22;5093499;28;20043;-80
2022/05/21 12:06:13;;;;;;;2.22;0.80;;;;;;;22.90;41.18;96710.88;5093098;28;20058;-80
2022/05/21 12:08:51;;;;;;;1.98;0.73;;;;;;;23.12;38.81;96708.97;5092531;28;20032;-81
2022/05/21 12:11:40;;;;;;;3.03;1.02;;;;;;;23.09;39.08;96707.00;5093481;28;20540;-82